Time;durP1;ratioP1;P1;durP2;ratioP2;P2;SDS_P1;SDS_P2;PMS_P1;PMS_P2;Temp;Humidity;BMP_temperature;BMP_pressure;BME280_temperature;BME280_humidity;BME280_pressure;Samples;Min_cycle;Max_cycle;Signal;HPM_P1;HPM_P2
2023/04/12 00:00:16;;;;;;;8.07;2.90;;;10.70;68.70;;;;;;5079032;28;20457;-64
2023/04/12 00:02:53;;;;;;;6.10;2.50;;;10.70;68.70;;;;;;5080780;28;20493;-64
2023/04/12 00:05:26;;;;;;;9.40;3.20;;;10.70;68.80;;;;;;5080150;28;20959;-63
2023/04/12 00:07:59;;;;;;;7.63;2.90;;;10.70;68.80;;;;;;5080537;28;20968;-63
2023/04/12 00:10:32;;;;;;;12.57;4.80;;;10.70;68.80;;;;;;5083678;28;20946;-63
2023/04/12 00:13:07;;;;;;;11.47;5.07;;;10.70;68.80;;;;;;5078246;28;20564;-63
2023/04/12 00:15:43;;;;;;;11.53;7.20;;;10.60;68.80;;;;;;5078911;28;20469;-63
2023/04/12 00:18:18;;;;;;;9.03;5.40;;;10.60;68.90;;;;;;5081779;28;20990;-63
2023/04/12 00:20:58;;;;;;;10.37;4.87;;;10.60;68.90;;;;;;5081796;28;20471;-64
2023/04/12 00:23:32;;;;;;;10.53;4.07;;;10.60;69.00;;;;;;5081805;28;20531;-63
2023/04/12 00:26:11;;;;;;;6.20;2.40;;;10.60;69.00;;;;;;5079112;28;20795;-63
2023/04/12 00:28:47;;;;;;;5.43;2.63;;;10.70;69.10;;;;;;5083184;28;20473;-63
2023/04/12 00:31:21;;;;;;;7.80;2.90;;;10.70;69.10;;;;;;5083607;28;20518;-63
2023/04/12 00:33:55;;;;;;;7.07;2.53;;;10.70;69.10;;;;;;5077763;28;20549;-63
2023/04/12 00:36:32;;;;;;;10.53;3.03;;;10.80;69.10;;;;;;5079695;28;20482;-63
2023/04/12 00:39:12;;;;;;;13.53;3.10;;;10.80;68.90;;;;;;5078405;28;20468;-64
2023/04/12 00:41:47;;;;;;;9.57;2.57;;;10.80;68.90;;;;;;5078799;28;20769;-63
2023/04/12 00:44:20;;;;;;;6.30;2.13;;;10.90;68.90;;;;;;5067030;28;21309;-63
2023/04/12 00:46:50;;;;;;;7.77;2.33;;;10.90;68.80;;;;;;5063008;28;20560;-63
2023/04/12 00:49:19;;;;;;;6.80;2.10;;;10.90;68.80;;;;;;5066255;28;21231;-63
2023/04/12 00:51:51;;;;;;;7.50;2.00;;;11.00;68.70;;;;;;5079403;28;20455;-63
2023/04/12 00:54:29;;;;;;;6.30;2.40;;;11.00;68.50;;;;;;5062516;28;20538;-63
2023/04/12 00:57:02;;;;;;;11.43;2.13;;;11.00;68.40;;;;;;5080445;28;20545;-63
2023/04/12 00:59:45;;;;;;;7.50;2.53;;;11.00;68.40;;;;;;5068446;28;20971;-63
2023/04/12 01:02:20;;;;;;;5.97;2.30;;;11.10;68.40;;;;;;5076626;28;21058;-63
2023/04/12 01:04:57;;;;;;;5.90;2.20;;;11.10;68.40;;;;;;5061463;28;20775;-63
2023/04/12 01:07:50;;;;;;;10.93;2.37;;;11.10;68.40;;;;;;5076382;28;20460;-63
2023/04/12 01:10:35;;;;;;;6.63;2.30;;;11.10;68.30;;;;;;5078460;28;20829;-63
2023/04/12 01:13:19;;;;;;;9.00;2.70;;;11.10;68.30;;;;;;5070653;28;20458;-63
2023/04/12 01:15:54;;;;;;;6.67;2.00;;;11.10;68.30;;;;;;5081221;28;20462;-63
2023/04/12 01:18:50;;;;;;;7.53;2.30;;;11.10;68.20;;;;;;5080311;28;20464;-63
2023/04/12 01:21:35;;;;;;;8.07;2.83;;;11.10;68.20;;;;;;5080799;28;20462;-64
2023/04/12 01:24:23;;;;;;;9.00;2.43;;;11.10;68.10;;;;;;5078402;28;20800;-65
2023/04/12 01:27:00;;;;;;;10.37;2.30;;;11.10;67.90;;;;;;5079752;28;20475;-64
2023/04/12 01:29:41;;;;;;;7.43;2.87;;;11.00;67.90;;;;;;5081732;28;20524;-64
2023/04/12 01:32:13;;;;;;;10.87;2.90;;;11.00;67.80;;;;;;5081763;28;20499;-64
2023/04/12 01:34:50;;;;;;;6.57;2.40;;;11.10;67.80;;;;;;5084525;28;20467;-63
2023/04/12 01:37:24;;;;;;;9.20;2.83;;;11.10;67.80;;;;;;5062161;28;20475;-63
2023/04/12 01:39:59;;;;;;;6.47;2.23;;;11.10;67.80;;;;;;5071403;28;20522;-63
2023/04/12 01:42:40;;;;;;;9.03;2.40;;;11.10;67.70;;;;;;5079709;28;20548;-65
2023/04/12 01:45:15;;;;;;;6.47;2.53;;;11.10;67.70;;;;;;5080650;28;21218;-64
2023/04/12 01:47:51;;;;;;;8.97;2.97;;;11.10;67.70;;;;;;5068671;28;20524;-64
2023/04/12 01:50:35;;;;;;;5.50;2.40;;;11.20;67.70;;;;;;5078906;28;20912;-64
2023/04/12 01:53:12;;;;;;;9.17;2.93;;;11.20;67.70;;;;;;5079794;28;20933;-64
2023/04/12 01:55:47;;;;;;;7.40;2.80;;;11.20;67.70;;;;;;5079530;28;20872;-63
2023/04/12 01:58:27;;;;;;;9.93;3.33;;;11.20;67.60;;;;;;5064443;28;20468;-65
2023/04/12 02:01:04;;;;;;;7.80;2.60;;;11.20;67.60;;;;;;5067437;28;20561;-63
2023/04/12 02:03:41;;;;;;;8.80;2.97;;;11.20;67.60;;;;;;5082176;28;20469;-62
2023/04/12 02:06:15;;;;;;;8.37;2.57;;;11.20;67.60;;;;;;5080145;28;20962;-64
2023/04/12 02:08:50;;;;;;;6.70;2.60;;;11.20;67.60;;;;;;5079754;28;20480;-62
2023/04/12 02:11:23;;;;;;;8.70;2.57;;;11.20;67.60;;;;;;5079772;28;20521;-64
2023/04/12 02:14:02;;;;;;;14.03;3.07;;;11.20;67.70;;;;;;5083271;28;20547;-63
2023/04/12 02:16:41;;;;;;;6.73;2.57;;;11.20;67.70;;;;;;5084269;28;20447;-63
2023/04/12 02:19:15;;;;;;;7.77;2.27;;;11.20;67.80;;;;;;5082634;28;20466;-63
2023/04/12 02:21:55;;;;;;;6.90;2.87;;;11.20;67.80;;;;;;5080455;28;20463;-64
2023/04/12 02:24:33;;;;;;;12.70;3.47;;;11.20;67.80;;;;;;5081171;28;20492;-63
2023/04/12 02:27:08;;;;;;;12.30;4.00;;;11.20;67.90;;;;;;5080171;28;20492;-63
2023/04/12 02:29:47;;;;;;;6.50;2.20;;;11.20;67.90;;;;;;5083131;28;21101;-63
2023/04/12 02:32:31;;;;;;;13.80;2.90;;;11.20;67.90;;;;;;5083889;28;20477;-63
2023/04/12 02:35:09;;;;;;;9.07;3.03;;;11.20;67.90;;;;;;5083696;28;20569;-63
2023/04/12 02:37:49;;;;;;;8.77;2.97;;;11.20;67.80;;;;;;5083918;28;20479;-63
2023/04/12 02:40:22;;;;;;;8.50;2.40;;;11.10;67.90;;;;;;5079655;28;20469;-63
2023/04/12 02:42:55;;;;;;;8.10;3.50;;;11.10;68.00;;;;;;5065138;28;20572;-63
2023/04/12 02:45:34;;;;;;;10.20;3.13;;;11.00;68.20;;;;;;5063270;28;20473;-63
2023/04/12 02:48:20;;;;;;;10.07;2.90;;;11.00;68.40;;;;;;5064173;28;20543;-63
2023/04/12 02:50:55;;;;;;;10.70;3.23;;;11.00;68.60;;;;;;5079003;28;20971;-63
2023/04/12 02:53:29;;;;;;;9.40;2.93;;;10.90;68.70;;;;;;5080226;28;20536;-63
2023/04/12 02:56:23;;;;;;;8.83;3.03;;;10.90;68.70;;;;;;5079522;28;20462;-63
2023/04/12 02:59:03;;;;;;;6.53;2.40;;;10.90;68.80;;;;;;5080808;28;20536;-63
2023/04/12 03:02:02;;;;;;;13.37;2.80;;;10.90;68.90;;;;;;5083276;28;20474;-64
2023/04/12 03:04:46;;;;;;;12.47;3.73;;;10.90;69.10;;;;;;5081845;28;20479;-63
2023/04/12 03:07:21;;;;;;;9.40;3.50;;;10.90;69.20;;;;;;5080725;28;20466;-63
2023/04/12 03:09:58;;;;;;;11.20;4.37;;;10.90;69.20;;;;;;5083109;28;20460;-63
2023/04/12 03:12:38;;;;;;;15.47;8.37;;;10.90;69.40;;;;;;5065294;28;20496;-63
2023/04/12 03:15:26;;;;;;;7.57;3.73;;;10.90;69.40;;;;;;5079121;28;20475;-63
2023/04/12 03:18:08;;;;;;;9.20;3.23;;;10.90;69.40;;;;;;5084376;28;20451;-63
2023/04/12 03:21:02;;;;;;;7.23;2.53;;;10.90;69.50;;;;;;5067160;28;20471;-63
2023/04/12 03:23:36;;;;;;;8.27;3.30;;;10.90;69.70;;;;;;5062446;28;20466;-63
2023/04/12 03:26:19;;;;;;;8.43;3.57;;;10.80;69.70;;;;;;5061219;28;20503;-62
2023/04/12 03:29:04;;;;;;;17.00;9.83;;;10.80;69.80;;;;;;5078058;28;20459;-63
2023/04/12 03:31:41;;;;;;;15.90;8.27;;;10.80;69.90;;;;;;5065901;28;20482;-63
2023/04/12 03:34:14;;;;;;;16.77;10.00;;;10.80;70.00;;;;;;5082769;28;20986;-62
2023/04/12 03:36:53;;;;;;;15.00;8.23;;;10.70;70.10;;;;;;5081575;28;20553;-63
2023/04/12 03:39:57;;;;;;;13.70;5.47;;;10.70;70.20;;;;;;5079144;28;20934;-63
2023/04/12 03:42:32;;;;;;;8.80;3.73;;;10.70;70.40;;;;;;5062497;28;20946;-63
2023/04/12 03:45:12;;;;;;;12.10;4.30;;;10.70;70.50;;;;;;5031866;28;21320;-63
2023/04/12 03:47:51;;;;;;;9.40;3.50;;;10.60;70.60;;;;;;5081432;28;21011;-63
2023/04/12 03:50:30;;;;;;;14.00;6.53;;;10.60;70.80;;;;;;5065619;28;20892;-62
2023/04/12 03:53:07;;;;;;;14.30;7.30;;;10.60;70.90;;;;;;5066264;28;20471;-62
2023/04/12 03:55:45;;;;;;;10.10;4.23;;;10.60;71.10;;;;;;5082589;28;20898;-63
2023/04/12 03:58:19;;;;;;;14.40;4.17;;;10.70;71.20;;;;;;5066775;28;20458;-63
2023/04/12 04:00:53;;;;;;;10.03;3.40;;;10.60;71.30;;;;;;5067354;28;20468;-62
2023/04/12 04:03:36;;;;;;;12.17;4.27;;;10.60;71.40;;;;;;5080399;28;20467;-63
2023/04/12 04:06:25;;;;;;;8.37;3.33;;;10.60;71.50;;;;;;5065988;28;20453;-63
2023/04/12 04:09:10;;;;;;;10.77;3.20;;;10.50;71.60;;;;;;5076242;28;20551;-63
2023/04/12 04:11:40;;;;;;;12.47;3.63;;;10.50;71.90;;;;;;5065417;28;20467;-62
2023/04/12 04:14:17;;;;;;;10.17;3.73;;;10.50;71.90;;;;;;5065930;28;20466;-62
2023/04/12 04:16:47;;;;;;;9.73;3.63;;;10.40;72.10;;;;;;5072337;28;20464;-63
2023/04/12 04:19:23;;;;;;;10.10;3.87;;;10.40;72.20;;;;;;5082744;28;20462;-63
2023/04/12 04:22:03;;;;;;;14.10;5.00;;;10.40;72.30;;;;;;5068367;28;21031;-63
2023/04/12 04:24:40;;;;;;;8.63;3.87;;;10.40;72.50;;;;;;5081029;28;20463;-63
2023/04/12 04:27:14;;;;;;;11.27;5.50;;;10.50;72.50;;;;;;5066281;28;20471;-64
2023/04/12 04:29:47;;;;;;;12.93;4.27;;;10.40;72.60;;;;;;5069499;28;20454;-63
2023/04/12 04:32:27;;;;;;;9.90;4.10;;;10.40;72.70;;;;;;5061853;28;20487;-64
2023/04/12 04:35:00;;;;;;;12.03;5.10;;;10.40;72.90;;;;;;5083306;28;20540;-64
2023/04/12 04:37:56;;;;;;;8.93;3.70;;;10.40;73.10;;;;;;5065551;28;20461;-63
2023/04/12 04:40:42;;;;;;;10.40;3.73;;;10.40;73.20;;;;;;5083788;28;20493;-64
2023/04/12 04:43:19;;;;;;;8.60;4.17;;;10.30;73.30;;;;;;5083980;28;20497;-63
2023/04/12 04:45:55;;;;;;;11.27;4.30;;;10.30;73.40;;;;;;5061137;28;20569;-63
2023/04/12 04:48:40;;;;;;;7.80;3.93;;;10.30;73.50;;;;;;5084334;28;21003;-63
2023/04/12 04:51:13;;;;;;;13.30;4.73;;;10.30;73.60;;;;;;5067744;28;20468;-63
2023/04/12 04:53:53;;;;;;;12.37;5.07;;;10.30;73.90;;;;;;5068119;28;20461;-64
2023/04/12 04:56:43;;;;;;;10.70;4.70;;;10.20;74.00;;;;;;5081425;28;21007;-63
2023/04/12 04:59:22;;;;;;;15.13;5.13;;;10.10;74.50;;;;;;5081621;28;20500;-63
2023/04/12 05:02:01;;;;;;;12.40;3.80;;;10.00;74.40;;;;;;5080484;28;20472;-63
2023/04/12 05:04:34;;;;;;;13.43;3.87;;;10.00;74.60;;;;;;5083716;28;20457;-64
2023/04/12 05:07:05;;;;;;;10.70;3.93;;;10.00;74.60;;;;;;5064456;28;21034;-63
2023/04/12 05:09:37;;;;;;;8.67;4.00;;;10.00;74.70;;;;;;5068191;28;20496;-63
2023/04/12 05:12:18;;;;;;;12.30;4.07;;;10.00;75.00;;;;;;5077876;28;20497;-63
2023/04/12 05:14:56;;;;;;;12.67;4.30;;;10.00;75.10;;;;;;5085394;28;20798;-64
2023/04/12 05:17:44;;;;;;;11.50;4.57;;;10.00;75.30;;;;;;5068224;28;20460;-63
2023/04/12 05:20:21;;;;;;;10.50;4.27;;;9.90;75.50;;;;;;5084632;28;20458;-64
2023/04/12 05:22:52;;;;;;;7.13;3.13;;;9.90;75.60;;;;;;5064419;28;20456;-63
2023/04/12 05:25:31;;;;;;;10.63;4.00;;;9.90;75.60;;;;;;5062353;28;20462;-64
2023/04/12 05:28:23;;;;;;;8.27;3.03;;;9.90;75.80;;;;;;5080501;28;20472;-63
2023/04/12 05:31:02;;;;;;;9.13;3.93;;;9.90;76.20;;;;;;5062099;28;20560;-63
2023/04/12 05:33:43;;;;;;;9.17;4.20;;;9.90;76.00;;;;;;5079264;28;20463;-63
2023/04/12 05:36:17;;;;;;;10.27;3.63;;;10.00;76.10;;;;;;5081216;28;21052;-63
2023/04/12 05:38:54;;;;;;;9.57;3.77;;;10.00;76.10;;;;;;5079021;28;20454;-64
2023/04/12 05:41:28;;;;;;;8.20;4.20;;;10.00;76.10;;;;;;5070560;28;21015;-64
2023/04/12 05:44:07;;;;;;;6.13;3.03;;;10.10;76.20;;;;;;5059310;28;20486;-63
2023/04/12 05:46:47;;;;;;;7.77;3.17;;;10.00;76.70;;;;;;5067799;28;20458;-64
2023/04/12 05:49:22;;;;;;;6.63;3.33;;;10.10;76.30;;;;;;5063846;28;20474;-64
2023/04/12 05:51:56;;;;;;;13.53;4.70;;;10.10;76.40;;;;;;5057797;28;20540;-63
2023/04/12 05:54:30;;;;;;;6.50;3.70;;;10.00;76.40;;;;;;5063451;28;21360;-64
2023/04/12 05:57:09;;;;;;;9.03;4.00;;;10.00;76.60;;;;;;5062304;28;20870;-64
2023/04/12 06:00:00;;;;;;;6.30;3.33;;;10.00;76.70;;;;;;5081101;28;20457;-64
2023/04/12 06:02:47;;;;;;;9.57;3.53;;;10.00;76.90;;;;;;5077660;28;20464;-64
2023/04/12 06:05:28;;;;;;;12.30;6.47;;;10.00;77.00;;;;;;5078339;28;20456;-64
2023/04/12 06:08:04;;;;;;;36.03;17.90;;;10.10;76.80;;;;;;5061874;28;21036;-64
2023/04/12 06:10:45;;;;;;;65.53;34.73;;;10.00;77.00;;;;;;5061914;28;20466;-64
2023/04/12 06:13:19;;;;;;;18.37;8.73;;;10.00;77.00;;;;;;5074918;28;20450;-64
2023/04/12 06:15:56;;;;;;;30.03;16.83;;;10.10;77.00;;;;;;5082136;28;20484;-64
2023/04/12 06:18:34;;;;;;;16.27;8.40;;;10.00;77.10;;;;;;5061169;28;20453;-64
2023/04/12 06:21:14;;;;;;;29.50;17.13;;;10.00;77.10;;;;;;5077817;28;20451;-64
2023/04/12 06:23:48;;;;;;;17.53;8.33;;;10.00;77.10;;;;;;5071052;28;20461;-64
2023/04/12 06:26:22;;;;;;;34.20;19.47;;;10.00;77.30;;;;;;5078711;28;20473;-64
2023/04/12 06:29:12;;;;;;;21.27;12.30;;;10.00;77.50;;;;;;5069523;28;20481;-63
2023/04/12 06:31:58;;;;;;;10.40;6.00;;;10.10;77.60;;;;;;5076051;28;20469;-63
2023/04/12 06:34:30;;;;;;;17.00;10.00;;;10.10;77.60;;;;;;5061504;28;20457;-64
2023/04/12 06:37:17;;;;;;;36.20;21.50;;;10.10;77.60;;;;;;5079092;28;20547;-64
2023/04/12 06:39:46;;;;;;;13.00;5.37;;;10.10;77.40;;;;;;5075497;28;20456;-64
2023/04/12 06:42:19;;;;;;;10.50;4.70;;;10.10;77.60;;;;;;5076926;28;20449;-64
2023/04/12 06:44:53;;;;;;;14.43;7.50;;;10.10;77.70;;;;;;4956988;28;3399365;-64
2023/04/12 06:47:32;;;;;;;25.37;13.73;;;10.10;77.70;;;;;;5068065;28;20201;-63
2023/04/12 06:50:02;;;;;;;10.93;4.37;;;10.10;77.80;;;;;;5081534;28;20579;-64
2023/04/12 06:52:45;;;;;;;7.00;3.40;;;10.00;78.20;;;;;;5081613;28;20548;-64
2023/04/12 06:58:05;;;;;;;14.30;3.30;;;10.00;78.10;;;;;;5065238;28;20788;-64
2023/04/12 07:00:45;;;;;;;7.97;3.03;;;10.00;78.20;;;;;;5082249;28;20465;-64
2023/04/12 07:03:34;;;;;;;5.77;3.33;;;10.00;78.30;;;;;;5078514;28;20508;-64
2023/04/12 07:06:15;;;;;;;6.90;3.80;;;10.00;78.40;;;;;;5080372;28;20449;-64
2023/04/12 07:08:55;;;;;;;6.37;3.93;;;10.00;78.50;;;;;;5078760;28;20473;-64
2023/04/12 07:11:34;;;;;;;9.10;4.83;;;10.00;78.50;;;;;;5079993;28;20481;-64
2023/04/12 07:14:06;;;;;;;8.83;4.03;;;10.10;78.50;;;;;;5077033;28;20476;-64
2023/04/12 07:16:44;;;;;;;11.23;4.13;;;10.00;78.60;;;;;;5081103;28;20484;-64
2023/04/12 07:19:19;;;;;;;10.23;3.27;;;10.00;78.70;;;;;;5076544;28;20452;-64
2023/04/12 07:21:56;;;;;;;6.63;3.10;;;10.00;78.80;;;;;;5083618;28;21027;-63
2023/04/12 07:24:28;;;;;;;5.33;3.07;;;10.10;78.90;;;;;;5086588;28;21214;-64
2023/04/12 07:26:59;;;;;;;6.20;3.27;;;10.00;79.00;;;;;;5084030;28;20450;-64
2023/04/12 07:29:33;;;;;;;6.40;3.80;;;10.00;79.00;;;;;;5080761;28;20928;-63
2023/04/12 07:32:04;;;;;;;9.70;4.97;;;10.00;79.10;;;;;;5081906;28;20516;-64
2023/04/12 07:34:49;;;;;;;7.77;4.17;;;10.00;79.10;;;;;;5084876;28;20549;-64
2023/04/12 07:37:26;;;;;;;7.80;4.90;;;10.10;79.30;;;;;;5072751;28;20500;-64
2023/04/12 07:40:04;;;;;;;6.90;4.07;;;10.00;79.50;;;;;;5083711;28;20523;-64
2023/04/12 07:42:36;;;;;;;6.40;3.37;;;10.10;79.50;;;;;;5082781;28;20451;-64
2023/04/12 07:45:09;;;;;;;8.00;3.80;;;10.10;79.60;;;;;;5085784;28;20472;-64
2023/04/12 07:47:48;;;;;;;12.47;6.43;;;10.10;79.80;;;;;;5085066;28;20521;-64
2023/04/12 07:50:32;;;;;;;7.23;3.00;;;10.10;79.90;;;;;;5080974;28;20584;-63
2023/04/12 07:53:19;;;;;;;6.40;2.97;;;10.20;79.80;;;;;;5080883;28;20791;-64
2023/04/12 07:55:56;;;;;;;7.53;3.30;;;10.20;79.70;;;;;;5081295;28;20510;-64
2023/04/12 07:58:34;;;;;;;5.83;2.90;;;10.10;79.90;;;;;;5085363;28;20466;-64
2023/04/12 08:01:10;;;;;;;6.57;3.03;;;10.10;80.00;;;;;;5069802;28;21003;-64
2023/04/12 08:03:43;;;;;;;10.10;3.60;;;10.10;80.10;;;;;;5081606;28;20457;-64
2023/04/12 08:06:30;;;;;;;6.50;3.33;;;10.20;80.10;;;;;;5082543;28;20508;-64
2023/04/12 08:09:05;;;;;;;5.67;2.97;;;10.20;80.20;;;;;;5083908;28;21002;-64
2023/04/12 08:11:46;;;;;;;8.40;3.20;;;10.20;80.20;;;;;;5081240;28;20470;-64
2023/04/12 08:14:19;;;;;;;7.00;4.00;;;10.30;80.20;;;;;;5080423;28;20450;-64
2023/04/12 08:16:51;;;;;;;8.33;3.40;;;10.30;80.10;;;;;;5087585;28;20547;-64
2023/04/12 08:22:08;;;;;;;9.30;5.60;;;10.30;80.30;;;;;;5081578;28;20488;-64
2023/04/12 08:24:47;;;;;;;6.23;3.10;;;10.30;80.50;;;;;;5084239;28;20458;-64
2023/04/12 08:27:18;;;;;;;7.10;2.70;;;10.30;80.60;;;;;;5082257;28;20462;-64
2023/04/12 08:29:53;;;;;;;7.03;2.87;;;10.40;80.50;;;;;;5081460;28;20512;-64
2023/04/12 08:32:33;;;;;;;5.90;2.87;;;10.40;80.60;;;;;;5081033;28;20482;-64
2023/04/12 08:35:04;;;;;;;4.77;2.30;;;10.50;80.70;;;;;;5081444;28;20506;-64
2023/04/12 08:37:36;;;;;;;8.00;3.00;;;10.60;80.70;;;;;;5082821;28;20535;-64
2023/04/12 08:40:12;;;;;;;7.20;4.30;;;10.60;80.60;;;;;;5077919;28;20431;-64
2023/04/12 08:42:47;;;;;;;8.00;3.00;;;10.70;80.70;;;;;;5079568;28;20486;-64
2023/04/12 08:45:25;;;;;;;7.73;3.20;;;10.60;81.00;;;;;;5081106;28;20474;-64
2023/04/12 08:48:00;;;;;;;6.23;3.37;;;10.60;81.00;;;;;;5081665;28;20473;-64
2023/04/12 08:50:45;;;;;;;5.17;2.63;;;10.70;81.00;;;;;;5078999;28;20484;-64
2023/04/12 08:53:32;;;;;;;8.77;2.87;;;10.70;81.00;;;;;;5079480;28;20771;-64
2023/04/12 08:56:08;;;;;;;4.90;2.60;;;10.70;81.10;;;;;;5080648;28;20454;-64
2023/04/12 08:58:49;;;;;;;18.03;10.53;;;10.70;81.10;;;;;;5081697;28;21232;-64
2023/04/12 09:01:24;;;;;;;5.50;2.73;;;10.70;81.10;;;;;;5079715;28;20474;-64
2023/04/12 09:03:56;;;;;;;6.30;2.77;;;10.80;81.20;;;;;;5079771;28;20502;-64
2023/04/12 09:06:42;;;;;;;6.00;3.27;;;10.80;81.10;;;;;;5080053;28;20465;-64
2023/04/12 09:09:20;;;;;;;7.03;3.30;;;10.80;81.20;;;;;;5077635;28;20493;-64
2023/04/12 09:12:06;;;;;;;5.60;3.30;;;10.90;81.20;;;;;;5073949;28;20490;-64
2023/04/12 09:14:38;;;;;;;5.50;2.80;;;10.90;81.20;;;;;;5084998;28;20466;-64
2023/04/12 09:17:27;;;;;;;9.03;4.50;;;10.90;81.30;;;;;;5081242;28;20501;-64
2023/04/12 09:20:01;;;;;;;6.30;2.90;;;11.00;81.10;;;;;;5078412;28;20441;-64
2023/04/12 09:22:43;;;;;;;5.60;2.83;;;11.00;81.10;;;;;;5076629;28;20791;-64
2023/04/12 09:25:44;;;;;;;8.93;4.60;;;11.00;81.20;;;;;;5083207;28;20829;-64
2023/04/12 09:28:29;;;;;;;7.60;4.20;;;11.00;81.30;;;;;;5078770;28;20544;-64
2023/04/12 09:31:04;;;;;;;7.20;3.43;;;11.00;81.60;;;;;;5078694;28;20475;-64
2023/04/12 09:33:45;;;;;;;7.90;3.93;;;11.00;81.80;;;;;;5079319;28;21291;-64
2023/04/12 09:36:37;;;;;;;9.97;4.17;;;11.00;81.80;;;;;;5079462;28;20502;-64
2023/04/12 09:39:09;;;;;;;8.80;4.10;;;11.10;81.80;;;;;;5081886;28;20451;-64
2023/04/12 09:42:06;;;;;;;9.10;3.97;;;11.20;81.80;;;;;;5081925;28;20477;-64
2023/04/12 09:45:02;;;;;;;6.23;3.30;;;11.30;81.90;;;;;;5081301;28;20931;-64
2023/04/12 09:47:42;;;;;;;7.27;3.70;;;11.30;81.90;;;;;;5083153;28;20576;-64
2023/04/12 09:50:32;;;;;;;7.00;3.47;;;11.40;81.90;;;;;;5081731;28;20485;-64
2023/04/12 09:53:14;;;;;;;5.33;2.83;;;11.50;81.80;;;;;;5082094;28;20976;-64
2023/04/12 09:55:46;;;;;;;7.87;3.27;;;11.50;81.80;;;;;;5078439;28;20547;-63
2023/04/12 09:58:31;;;;;;;7.20;3.40;;;11.60;81.70;;;;;;5072939;28;20467;-64
2023/04/12 10:01:09;;;;;;;4.93;3.13;;;11.70;81.60;;;;;;5080579;28;20461;-64
2023/04/12 10:03:48;;;;;;;7.43;3.67;;;11.70;81.60;;;;;;5082021;28;20800;-64
2023/04/12 10:06:26;;;;;;;9.10;2.70;;;11.70;81.70;;;;;;5079954;28;20463;-64
2023/04/12 10:09:01;;;;;;;6.13;3.20;;;11.80;81.70;;;;;;5080893;28;20855;-64
2023/04/12 10:11:42;;;;;;;6.70;3.33;;;11.80;81.80;;;;;;5081224;28;21077;-64
2023/04/12 10:14:24;;;;;;;7.27;3.17;;;11.90;81.80;;;;;;5060936;28;20463;-64
2023/04/12 10:16:58;;;;;;;8.63;3.67;;;11.90;81.90;;;;;;5081426;28;20469;-63
2023/04/12 10:19:32;;;;;;;24.63;15.90;;;12.00;81.90;;;;;;5079673;28;20555;-63
2023/04/12 10:22:07;;;;;;;40.30;22.60;;;12.10;81.90;;;;;;5078477;28;20798;-64
2023/04/12 10:24:48;;;;;;;49.33;29.20;;;12.10;81.90;;;;;;5075353;28;21206;-64
2023/04/12 10:27:32;;;;;;;25.00;14.60;;;12.20;81.80;;;;;;5080654;28;20467;-63
2023/04/12 10:30:28;;;;;;;39.30;23.10;;;12.20;81.80;;;;;;5080032;28;21123;-64
2023/04/12 10:33:42;;;;;;;18.33;12.17;;;12.30;81.80;;;;;;5077029;28;20856;-63
2023/04/12 10:36:44;;;;;;;10.27;5.27;;;12.40;81.80;;;;;;5078031;28;20466;-63
2023/04/12 10:39:41;;;;;;;9.13;4.10;;;12.40;81.90;;;;;;5069698;28;20802;-64
2023/04/12 10:42:47;;;;;;;8.57;4.93;;;12.50;81.90;;;;;;5069992;28;20463;-64
2023/04/12 10:45:44;;;;;;;7.47;4.30;;;12.50;81.70;;;;;;5082381;28;20811;-64
2023/04/12 10:48:32;;;;;;;12.43;5.10;;;12.50;81.70;;;;;;5065052;28;21393;-63
2023/04/12 10:51:21;;;;;;;12.63;4.50;;;12.50;81.70;;;;;;5080398;28;20499;-64
2023/04/12 10:53:55;;;;;;;7.17;3.63;;;12.50;81.90;;;;;;5080249;28;20476;-64
2023/04/12 10:57:00;;;;;;;8.30;4.00;;;12.60;81.90;;;;;;5082638;28;20453;-63
2023/04/12 10:59:58;;;;;;;10.80;5.13;;;12.60;81.80;;;;;;5083777;28;20454;-64
2023/04/12 11:02:43;;;;;;;7.87;4.27;;;12.60;81.90;;;;;;5085953;28;20489;-64
2023/04/12 11:05:19;;;;;;;9.33;4.17;;;12.60;81.90;;;;;;5081766;28;20464;-64
2023/04/12 11:07:54;;;;;;;5.73;3.27;;;12.60;82.00;;;;;;5084638;28;20515;-64
2023/04/12 11:10:46;;;;;;;6.27;3.43;;;12.70;81.90;;;;;;5083213;28;20606;-64
2023/04/12 11:13:42;;;;;;;6.00;3.70;;;12.70;81.90;;;;;;5080708;28;20925;-64
2023/04/12 11:16:20;;;;;;;13.20;2.63;;;12.70;81.90;;;;;;5085822;28;20443;-64
2023/04/12 11:18:58;;;;;;;7.90;3.30;;;12.70;81.90;;;;;;5069859;28;20469;-64
2023/04/12 11:21:33;;;;;;;9.03;3.50;;;12.70;82.00;;;;;;5082870;28;20458;-64
2023/04/12 11:24:05;;;;;;;7.63;3.50;;;12.70;81.90;;;;;;5084833;28;20496;-63
2023/04/12 11:26:49;;;;;;;6.90;3.80;;;12.70;81.90;;;;;;5083457;28;20555;-64
2023/04/12 11:29:27;;;;;;;7.27;3.57;;;12.70;81.90;;;;;;5067399;28;20504;-64
2023/04/12 11:32:06;;;;;;;7.87;3.00;;;12.80;82.00;;;;;;5082401;28;21159;-64
2023/04/12 11:34:45;;;;;;;8.53;3.60;;;12.80;82.00;;;;;;5082316;28;20467;-64
2023/04/12 11:37:26;;;;;;;8.63;3.90;;;12.80;81.90;;;;;;5067221;28;20895;-64
2023/04/12 11:40:04;;;;;;;7.50;4.03;;;12.90;81.90;;;;;;5080690;28;20465;-64
2023/04/12 11:42:39;;;;;;;8.33;3.60;;;12.90;81.90;;;;;;5078292;28;20474;-64
2023/04/12 11:45:13;;;;;;;8.70;3.70;;;12.90;81.90;;;;;;5086068;28;20471;-65
2023/04/12 11:47:56;;;;;;;16.20;5.50;;;13.00;82.00;;;;;;5082917;28;20462;-64
2023/04/12 11:50:36;;;;;;;13.17;4.10;;;13.00;82.10;;;;;;5080274;28;20480;-64
2023/04/12 11:53:12;;;;;;;7.77;3.50;;;13.10;82.20;;;;;;5081220;28;20489;-64
2023/04/12 11:55:50;;;;;;;6.83;3.13;;;13.20;82.20;;;;;;5082013;28;20465;-64
2023/04/12 11:58:30;;;;;;;6.50;3.57;;;13.20;82.20;;;;;;5077494;28;20948;-64
2023/04/12 12:01:00;;;;;;;8.50;3.33;;;13.30;82.20;;;;;;5079737;28;21028;-64
2023/04/12 12:03:38;;;;;;;11.20;4.53;;;13.30;82.10;;;;;;5081885;28;20964;-64
2023/04/12 12:06:11;;;;;;;7.17;3.50;;;13.40;82.10;;;;;;5082937;28;20977;-64
2023/04/12 12:08:52;;;;;;;9.87;3.43;;;13.40;81.90;;;;;;5070535;28;20576;-64
2023/04/12 12:11:25;;;;;;;8.30;3.30;;;13.40;81.90;;;;;;5081199;28;20476;-64
2023/04/12 12:14:03;;;;;;;7.63;3.50;;;13.40;81.80;;;;;;5075959;28;20467;-64
2023/04/12 12:16:40;;;;;;;6.37;3.20;;;13.40;81.80;;;;;;5081283;28;20844;-64
2023/04/12 12:19:15;;;;;;;5.93;3.23;;;13.30;81.80;;;;;;5080954;28;20483;-63
2023/04/12 12:21:56;;;;;;;9.13;4.00;;;13.30;81.80;;;;;;5081208;28;21481;-62
2023/04/12 12:24:31;;;;;;;6.63;3.20;;;13.30;81.80;;;;;;5078388;28;20832;-64
2023/04/12 12:27:12;;;;;;;6.53;3.30;;;13.30;81.90;;;;;;5085765;28;20602;-62
2023/04/12 12:29:45;;;;;;;6.20;3.00;;;13.30;81.90;;;;;;5065405;28;20523;-62
2023/04/12 12:32:22;;;;;;;6.83;2.80;;;13.30;81.80;;;;;;5083079;28;20951;-64
2023/04/12 12:34:57;;;;;;;8.97;3.90;;;13.30;81.70;;;;;;5082669;28;20453;-63
2023/04/12 12:37:34;;;;;;;7.97;3.67;;;13.30;81.80;;;;;;5078992;28;20552;-64
2023/04/12 12:40:12;;;;;;;5.77;2.73;;;13.30;82.00;;;;;;5082384;28;20465;-62
2023/04/12 12:42:49;;;;;;;5.87;2.90;;;13.30;82.10;;;;;;5084360;28;20776;-62
2023/04/12 12:45:22;;;;;;;7.83;3.00;;;13.30;82.20;;;;;;5086221;28;20456;-64
2023/04/12 12:48:02;;;;;;;10.30;2.80;;;13.30;82.10;;;;;;5069077;28;20460;-62
2023/04/12 12:50:41;;;;;;;6.80;2.90;;;13.40;82.20;;;;;;5083405;28;21068;-62
2023/04/12 12:53:16;;;;;;;4.80;2.43;;;13.40;82.30;;;;;;5083640;28;20554;-62
2023/04/12 12:56:01;;;;;;;6.37;3.00;;;13.40;82.30;;;;;;5078091;28;20480;-64
2023/04/12 12:58:36;;;;;;;6.57;3.00;;;13.50;82.30;;;;;;5083272;28;20461;-62
2023/04/12 13:01:08;;;;;;;10.50;2.90;;;13.50;82.40;;;;;;5083559;28;21012;-63
2023/04/12 13:03:41;;;;;;;4.70;2.60;;;13.50;82.40;;;;;;5079274;28;20594;-64
2023/04/12 13:06:21;;;;;;;6.37;2.30;;;13.50;82.40;;;;;;5067946;28;20485;-62
2023/04/12 13:08:55;;;;;;;6.13;3.00;;;13.50;82.50;;;;;;5083802;28;20463;-62
2023/04/12 13:11:33;;;;;;;8.83;2.93;;;13.60;82.50;;;;;;5078650;28;20481;-62
2023/04/12 13:14:10;;;;;;;8.20;2.83;;;13.60;82.60;;;;;;5080015;28;20702;-62
2023/04/12 13:16:44;;;;;;;5.90;2.70;;;13.70;82.60;;;;;;5082005;28;20466;-61
2023/04/12 13:19:14;;;;;;;6.60;3.50;;;13.70;82.60;;;;;;5073698;28;20481;-64
2023/04/12 13:21:46;;;;;;;5.90;2.87;;;13.60;82.70;;;;;;5077463;28;21023;-62
2023/04/12 13:24:18;;;;;;;8.87;2.60;;;13.70;82.60;;;;;;5084257;28;20976;-64
2023/04/12 13:26:57;;;;;;;5.10;2.60;;;13.70;82.60;;;;;;5077811;28;20491;-63
2023/04/12 13:29:29;;;;;;;9.93;2.70;;;13.70;82.60;;;;;;5079911;28;20506;-61
2023/04/12 13:32:09;;;;;;;5.07;2.33;;;13.70;82.70;;;;;;5076783;28;20488;-63
2023/04/12 13:34:40;;;;;;;4.23;1.80;;;13.70;82.60;;;;;;5079824;28;20461;-63
2023/04/12 13:37:09;;;;;;;6.00;2.60;;;13.80;82.60;;;;;;5080006;28;20800;-64
2023/04/12 13:39:48;;;;;;;7.63;2.10;;;13.80;82.50;;;;;;5079020;28;20497;-64
2023/04/12 13:42:21;;;;;;;6.63;2.30;;;13.80;82.60;;;;;;5072504;28;21469;-62
2023/04/12 13:44:54;;;;;;;5.03;3.07;;;13.80;82.90;;;;;;5041820;28;20475;-61
2023/04/12 13:47:26;;;;;;;5.30;2.57;;;13.90;83.00;;;;;;5038568;28;20473;-62